createdAt,value
2019-02-22T00:01:21.542Z,30.30
2019-02-22T00:03:50.036Z,33.43
2019-02-22T00:06:18.430Z,34.03
2019-02-22T00:08:46.847Z,37.73
2019-02-22T00:11:15.252Z,30.93
2019-02-22T00:13:43.673Z,31.83
2019-02-22T00:16:12.075Z,32.70
2019-02-22T00:18:40.496Z,29.30
2019-02-22T00:21:08.892Z,31.50
2019-02-22T00:23:37.309Z,33.83
2019-02-22T00:26:05.710Z,32.97
2019-02-22T00:28:34.135Z,31.43
2019-02-22T00:31:02.517Z,33.20
2019-02-22T00:33:30.933Z,32.40
2019-02-22T00:35:59.442Z,29.60
2019-02-22T00:38:27.913Z,30.80
2019-02-22T00:40:56.290Z,30.00
2019-02-22T00:43:24.711Z,32.00
2019-02-22T00:45:53.118Z,26.33
2019-02-22T00:48:21.527Z,29.53
2019-02-22T00:50:49.927Z,25.80
2019-02-22T00:53:18.368Z,32.47
2019-02-22T00:55:46.828Z,28.57
2019-02-22T00:58:15.248Z,27.57
2019-02-22T01:00:43.637Z,27.20
2019-02-22T01:03:12.065Z,33.23
2019-02-22T01:05:40.461Z,29.93
2019-02-22T01:08:08.887Z,32.00
2019-02-22T01:10:37.271Z,32.27
2019-02-22T01:13:05.700Z,32.07
2019-02-22T01:15:34.107Z,31.00
2019-02-22T01:18:02.530Z,25.30
2019-02-22T01:20:30.936Z,28.03
2019-02-22T01:22:59.347Z,31.57
2019-02-22T01:25:27.754Z,27.77
2019-02-22T01:27:56.150Z,26.50
2019-02-22T01:30:24.567Z,29.30
2019-02-22T01:32:52.966Z,26.27
2019-02-22T01:35:21.362Z,25.90
2019-02-22T01:37:49.774Z,25.47
2019-02-22T01:40:18.178Z,32.07
2019-02-22T01:42:46.573Z,28.47
2019-02-22T01:45:14.988Z,25.50
2019-02-22T01:47:43.413Z,27.73
2019-02-22T01:50:14.887Z,28.37
2019-02-22T01:52:43.300Z,28.90
2019-02-22T01:55:11.710Z,33.60
2019-02-22T01:57:40.109Z,28.17
2019-02-22T02:00:11.028Z,29.00
2019-02-22T02:02:39.423Z,30.40
2019-02-22T02:05:07.835Z,24.30
2019-02-22T02:07:36.231Z,31.43
2019-02-22T02:10:05.377Z,30.53
2019-02-22T02:12:33.780Z,31.10
2019-02-22T02:15:02.205Z,26.60
2019-02-22T02:17:30.589Z,28.83
2019-02-22T02:19:59.032Z,28.43
2019-02-22T02:22:27.471Z,29.33
2019-02-22T02:24:55.869Z,28.37
2019-02-22T02:27:24.272Z,24.43
2019-02-22T02:29:52.688Z,31.07
2019-02-22T02:32:21.087Z,30.60
2019-02-22T02:34:49.503Z,27.80
2019-02-22T02:37:17.899Z,28.10
2019-02-22T02:39:46.326Z,25.63
2019-02-22T02:42:15.619Z,26.10
2019-02-22T02:44:44.022Z,29.60
2019-02-22T02:47:12.426Z,28.90
2019-02-22T02:49:40.845Z,29.03
2019-02-22T02:52:09.226Z,30.10
2019-02-22T02:54:37.639Z,27.20
2019-02-22T02:57:06.052Z,30.03
2019-02-22T02:59:34.481Z,34.93
2019-02-22T03:02:04.520Z,26.50
2019-02-22T03:04:32.935Z,30.13
2019-02-22T03:07:02.981Z,28.93
2019-02-22T03:09:31.391Z,27.53
2019-02-22T03:11:59.774Z,26.03
2019-02-22T03:14:28.196Z,24.63
2019-02-22T03:16:56.599Z,31.73
2019-02-22T03:19:25.018Z,27.93
2019-02-22T03:21:53.407Z,28.20
2019-02-22T03:24:21.825Z,29.33
2019-02-22T03:26:50.218Z,28.97
2019-02-22T03:29:18.629Z,28.40
2019-02-22T03:31:47.024Z,29.40
2019-02-22T03:34:15.448Z,27.20
2019-02-22T03:36:43.849Z,32.23
2019-02-22T03:39:12.246Z,30.40
2019-02-22T03:41:40.643Z,29.17
2019-02-22T03:44:09.055Z,31.27
2019-02-22T03:46:37.465Z,27.07
2019-02-22T03:49:05.875Z,33.10
2019-02-22T03:51:34.273Z,25.23
2019-02-22T03:54:02.730Z,28.73
2019-02-22T03:56:31.219Z,27.67
2019-02-22T03:58:59.660Z,28.90
2019-02-22T04:01:28.115Z,29.77
2019-02-22T04:03:56.539Z,27.40
2019-02-22T04:06:25.851Z,27.37
2019-02-22T04:08:54.256Z,29.40
2019-02-22T04:11:22.678Z,30.70
2019-02-22T04:13:51.143Z,29.47
2019-02-22T04:16:19.584Z,30.97
2019-02-22T04:18:47.969Z,30.57
2019-02-22T04:21:16.411Z,28.50
2019-02-22T04:23:44.799Z,27.77
2019-02-22T04:26:13.207Z,28.47
2019-02-22T04:28:41.606Z,34.27
2019-02-22T04:31:10.030Z,28.17
2019-02-22T04:33:38.441Z,35.57
2019-02-22T04:36:06.861Z,28.40
2019-02-22T04:38:35.274Z,32.43
2019-02-22T04:41:03.767Z,35.20
2019-02-22T04:43:32.251Z,32.50
2019-02-22T04:46:00.667Z,44.87
2019-02-22T04:48:29.068Z,41.00
2019-02-22T04:50:57.548Z,45.37
2019-02-22T04:53:25.964Z,50.60
2019-02-22T04:55:54.369Z,46.83
2019-02-22T04:58:22.781Z,50.60
2019-02-22T05:00:51.204Z,61.33
2019-02-22T05:03:19.621Z,52.43
2019-02-22T05:05:48.026Z,48.27
2019-02-22T05:08:16.419Z,50.73
2019-02-22T05:10:44.890Z,52.33
2019-02-22T05:13:13.308Z,49.33
2019-02-22T05:15:41.739Z,52.67
2019-02-22T05:18:10.198Z,50.73
2019-02-22T05:20:38.635Z,58.33
2019-02-22T05:23:07.655Z,58.13
2019-02-22T05:25:36.241Z,57.57
2019-02-22T05:28:04.633Z,57.63
2019-02-22T05:30:33.050Z,58.73
2019-02-22T05:33:01.474Z,60.87
2019-02-22T05:35:29.972Z,64.63
2019-02-22T05:38:00.037Z,66.03
2019-02-22T05:40:28.461Z,67.40
2019-02-22T05:42:56.848Z,69.40
2019-02-22T05:45:25.274Z,63.67
2019-02-22T05:47:53.661Z,64.90
2019-02-22T05:50:22.080Z,69.80
2019-02-22T05:52:50.487Z,65.20
2019-02-22T05:55:18.904Z,67.10
2019-02-22T05:57:47.341Z,70.53
2019-02-22T06:00:16.740Z,66.40
2019-02-22T06:02:45.138Z,65.13
2019-02-22T06:05:13.557Z,87.53
2019-02-22T06:07:41.956Z,74.43
2019-02-22T06:10:11.022Z,66.93
2019-02-22T06:12:39.410Z,71.57
2019-02-22T06:15:08.450Z,65.03
2019-02-22T06:17:36.863Z,78.63
2019-02-22T06:20:08.378Z,68.27
2019-02-22T06:22:36.785Z,70.47
2019-02-22T06:25:06.524Z,73.07
2019-02-22T06:27:34.957Z,71.30
2019-02-22T06:30:03.922Z,72.57
2019-02-22T06:32:32.353Z,74.03
2019-02-22T06:35:00.738Z,73.23
2019-02-22T06:37:29.147Z,74.57
2019-02-22T06:39:57.581Z,94.53
2019-02-22T06:42:26.059Z,76.63
2019-02-22T06:44:54.463Z,86.90
2019-02-22T06:47:23.015Z,68.50
2019-02-22T06:49:51.556Z,89.77
2019-02-22T06:52:19.980Z,83.30
2019-02-22T06:54:48.380Z,82.67
2019-02-22T06:57:16.797Z,77.03
2019-02-22T06:59:45.203Z,82.10
2019-02-22T07:02:13.601Z,76.67
2019-02-22T07:04:42.032Z,76.47
2019-02-22T07:07:10.443Z,75.10
2019-02-22T07:09:38.853Z,73.80
2019-02-22T07:12:08.924Z,76.47
2019-02-22T07:14:37.331Z,72.23
2019-02-22T07:17:05.739Z,77.43
2019-02-22T07:19:34.137Z,72.03
2019-02-22T07:22:02.560Z,75.70
2019-02-22T07:24:30.973Z,77.50
2019-02-22T07:26:59.383Z,73.03
2019-02-22T07:29:27.770Z,86.00
2019-02-22T07:32:05.426Z,72.50
2019-02-22T07:34:26.334Z,80.80
2019-02-22T07:36:54.743Z,86.47
2019-02-22T07:39:27.792Z,113.03
2019-02-22T07:41:53.303Z,85.07
2019-02-22T07:44:21.722Z,91.27
2019-02-22T07:46:50.146Z,87.37
2019-02-22T07:49:24.247Z,72.60
2019-02-22T07:51:52.668Z,72.17
2019-02-22T07:54:21.149Z,83.27
2019-02-22T07:56:49.595Z,82.87
2019-02-22T07:59:18.062Z,87.60
2019-02-22T08:01:47.954Z,88.27
2019-02-22T08:04:16.730Z,79.40
2019-02-22T08:06:45.135Z,87.37
2019-02-22T08:09:13.539Z,93.63
2019-02-22T08:11:41.945Z,94.03
2019-02-22T08:14:10.351Z,94.37
2019-02-22T08:16:38.765Z,82.67
2019-02-22T08:19:07.198Z,82.03
2019-02-22T08:21:35.607Z,83.30
2019-02-22T08:24:04.035Z,84.03
2019-02-22T08:26:32.449Z,78.23
2019-02-22T08:29:00.853Z,80.90
2019-02-22T08:31:29.246Z,86.33
2019-02-22T08:33:57.650Z,77.80
2019-02-22T08:36:26.056Z,84.27
2019-02-22T08:38:54.461Z,88.33
2019-02-22T08:41:22.854Z,85.20
2019-02-22T08:43:51.277Z,84.77
2019-02-22T08:46:19.910Z,76.10
2019-02-22T08:48:48.317Z,74.33
2019-02-22T08:51:16.733Z,69.63
2019-02-22T08:53:45.223Z,73.87
2019-02-22T08:56:13.613Z,79.97
2019-02-22T08:58:42.024Z,79.77
2019-02-22T09:01:10.429Z,75.40
2019-02-22T09:03:49.722Z,74.20
2019-02-22T09:06:08.989Z,60.57
2019-02-22T09:08:37.403Z,60.17
2019-02-22T09:11:05.805Z,58.90
2019-02-22T09:13:43.193Z,59.00
2019-02-22T09:16:04.401Z,61.83
2019-02-22T09:18:32.824Z,55.23
2019-02-22T09:21:01.241Z,54.23
2019-02-22T09:23:29.661Z,53.97
2019-02-22T09:25:58.061Z,56.23
2019-02-22T09:28:26.485Z,54.50
2019-02-22T09:30:54.887Z,52.57
2019-02-22T09:33:23.308Z,55.90
2019-02-22T09:35:51.698Z,54.50
2019-02-22T09:38:20.119Z,58.37
2019-02-22T09:40:48.536Z,60.17
2019-02-22T09:43:16.947Z,58.20
2019-02-22T09:45:45.351Z,51.60
2019-02-22T09:48:13.755Z,53.93
2019-02-22T09:50:42.145Z,53.13
2019-02-22T09:53:10.580Z,58.20
2019-02-22T09:55:39.299Z,48.20
2019-02-22T09:58:07.703Z,92.37
2019-02-22T10:00:36.103Z,71.67
2019-02-22T10:03:04.595Z,69.10
2019-02-22T10:05:33.006Z,52.30
2019-02-22T10:08:01.406Z,61.47
2019-02-22T10:10:29.810Z,72.63
2019-02-22T10:12:58.216Z,69.00
2019-02-22T10:15:26.635Z,45.30
2019-02-22T10:17:55.030Z,74.70
2019-02-22T10:20:23.469Z,65.23
2019-02-22T10:22:51.884Z,49.37
2019-02-22T10:25:20.313Z,48.07
2019-02-22T10:27:48.702Z,39.87
2019-02-22T10:30:17.146Z,72.70
2019-02-22T10:32:45.620Z,44.37
2019-02-22T10:35:14.030Z,41.20
2019-02-22T10:37:42.437Z,45.50
2019-02-22T10:40:11.132Z,50.60
2019-02-22T10:42:39.535Z,37.20
2019-02-22T10:45:09.794Z,43.67
2019-02-22T10:47:38.181Z,39.27
2019-02-22T10:50:08.643Z,40.77
2019-02-22T10:52:37.034Z,45.10
2019-02-22T10:55:08.291Z,48.80
2019-02-22T10:57:36.683Z,42.73
2019-02-22T11:00:08.502Z,42.43
2019-02-22T11:02:36.907Z,39.70
2019-02-22T11:05:05.565Z,35.63
2019-02-22T11:07:33.967Z,34.73
2019-02-22T11:10:02.375Z,31.83
2019-02-22T11:12:30.775Z,31.40
2019-02-22T11:14:59.209Z,34.53
2019-02-22T11:17:27.608Z,34.40
2019-02-22T11:19:56.034Z,36.37
2019-02-22T11:22:24.441Z,34.67
2019-02-22T11:24:52.928Z,29.40
2019-02-22T11:27:21.342Z,24.63
2019-02-22T11:29:49.749Z,19.30
2019-02-22T11:32:18.208Z,23.30
2019-02-22T11:34:46.930Z,21.63
2019-02-22T11:37:15.333Z,22.50
2019-02-22T11:39:43.751Z,25.60
2019-02-22T11:42:12.165Z,27.87
2019-02-22T11:44:40.594Z,21.20
2019-02-22T11:47:08.986Z,19.47
2019-02-22T11:49:37.385Z,19.60
2019-02-22T11:52:05.794Z,20.43
2019-02-22T11:54:34.209Z,10.13
2019-02-22T11:57:02.616Z,11.10
2019-02-22T11:59:31.031Z,13.13
2019-02-22T12:01:59.509Z,12.50
2019-02-22T12:04:27.933Z,22.40
2019-02-22T12:06:56.356Z,23.53
2019-02-22T12:09:24.771Z,21.33
2019-02-22T12:11:53.167Z,11.83
2019-02-22T12:14:21.594Z,9.87
2019-02-22T12:16:49.992Z,7.80
2019-02-22T12:19:18.414Z,9.30
2019-02-22T12:21:46.809Z,8.13
2019-02-22T12:24:15.226Z,9.40
2019-02-22T12:26:43.623Z,8.30
2019-02-22T12:29:12.026Z,8.60
2019-02-22T12:31:40.419Z,8.77
2019-02-22T12:34:08.887Z,7.93
2019-02-22T12:36:37.293Z,8.03
2019-02-22T12:39:06.651Z,9.30
2019-02-22T12:41:35.048Z,9.60
2019-02-22T12:44:03.462Z,11.60
2019-02-22T12:46:31.865Z,9.37
2019-02-22T12:49:00.273Z,7.80
2019-02-22T12:51:28.659Z,8.13
2019-02-22T12:53:57.078Z,9.70
2019-02-22T12:56:55.925Z,12.10
2019-02-22T12:58:55.929Z,20.50
2019-02-22T13:01:24.669Z,16.13
2019-02-22T13:03:53.236Z,16.00
2019-02-22T13:06:21.630Z,14.57
2019-02-22T13:08:50.047Z,15.60
2019-02-22T13:11:18.438Z,13.30
2019-02-22T13:13:46.855Z,14.80
2019-02-22T13:16:15.257Z,16.70
2019-02-22T13:18:43.661Z,13.00
2019-02-22T13:21:12.059Z,13.57
2019-02-22T13:23:40.472Z,12.77
2019-02-22T13:26:08.876Z,11.93
2019-02-22T13:28:37.593Z,13.77
2019-02-22T13:31:05.999Z,12.83
2019-02-22T13:33:34.407Z,12.57
2019-02-22T13:36:02.805Z,11.90
2019-02-22T13:38:31.217Z,11.67
2019-02-22T13:40:59.640Z,12.40
2019-02-22T13:43:28.110Z,11.40
2019-02-22T13:45:56.577Z,10.30
2019-02-22T13:48:24.981Z,10.33
2019-02-22T13:50:53.396Z,14.07
2019-02-22T13:53:21.791Z,11.83
2019-02-22T13:55:50.217Z,12.40
2019-02-22T13:58:18.605Z,11.70
2019-02-22T14:00:47.023Z,12.53
2019-02-22T14:03:15.417Z,11.07
2019-02-22T14:05:43.831Z,11.87
2019-02-22T14:08:12.236Z,9.97
2019-02-22T14:10:40.741Z,14.30
2019-02-22T14:13:09.147Z,11.20
2019-02-22T14:15:38.478Z,9.40
2019-02-22T14:18:07.037Z,10.53
2019-02-22T14:20:35.451Z,11.97
2019-02-22T14:23:03.933Z,14.30
2019-02-22T14:25:32.341Z,11.57
2019-02-22T14:28:00.744Z,12.00
2019-02-22T14:30:29.161Z,12.37
2019-02-22T14:32:57.626Z,12.57
2019-02-22T14:35:26.045Z,12.10
2019-02-22T14:37:54.457Z,13.20
2019-02-22T14:40:22.853Z,9.30
2019-02-22T14:42:51.250Z,10.03
2019-02-22T14:45:19.653Z,11.10
2019-02-22T14:47:48.054Z,9.43
2019-02-22T14:50:17.715Z,7.87
2019-02-22T14:52:46.108Z,7.57
2019-02-22T14:55:14.509Z,11.47
2019-02-22T14:57:45.073Z,8.73
2019-02-22T15:00:18.010Z,11.67
2019-02-22T15:02:46.401Z,10.53
2019-02-22T15:05:15.155Z,7.63
2019-02-22T15:07:43.563Z,8.90
2019-02-22T15:10:12.522Z,10.23
2019-02-22T15:12:40.912Z,10.13
2019-02-22T15:15:13.110Z,10.30
2019-02-22T15:17:45.580Z,9.03
2019-02-22T15:20:14.055Z,7.73
2019-02-22T15:22:42.449Z,7.97
2019-02-22T15:25:13.576Z,8.97
2019-02-22T15:27:41.971Z,9.50
2019-02-22T15:30:12.530Z,11.07
2019-02-22T15:32:41.222Z,11.33
2019-02-22T15:35:17.491Z,8.70
2019-02-22T15:37:45.956Z,7.77
2019-02-22T15:40:14.842Z,9.80
2019-02-22T15:42:43.261Z,7.10
2019-02-22T15:45:14.514Z,9.70
2019-02-22T15:47:42.925Z,10.40
2019-02-22T15:50:15.864Z,6.83
2019-02-22T15:52:44.732Z,6.57
2019-02-22T15:55:14.497Z,6.60
2019-02-22T15:57:43.004Z,9.37
2019-02-22T16:00:30.855Z,8.73
2019-02-22T16:02:59.257Z,5.43
2019-02-22T16:05:35.355Z,8.83
2019-02-22T16:08:03.935Z,5.33
2019-02-22T16:10:32.346Z,7.00
2019-02-22T16:13:00.743Z,10.67
2019-02-22T16:15:29.155Z,8.20
2019-02-22T16:17:57.565Z,7.30
2019-02-22T16:20:25.977Z,9.70
2019-02-22T16:22:54.365Z,6.00
2019-02-22T16:25:22.771Z,8.33
2019-02-22T16:27:51.160Z,8.27
2019-02-22T16:30:21.348Z,8.50
2019-02-22T16:32:49.744Z,9.30
2019-02-22T16:35:18.214Z,7.50
2019-02-22T16:37:46.613Z,11.37
2019-02-22T16:40:15.010Z,10.60
2019-02-22T16:42:43.408Z,8.80
2019-02-22T16:45:13.136Z,9.50
2019-02-22T16:47:41.542Z,7.50
2019-02-22T16:50:11.692Z,7.77
2019-02-22T16:52:40.180Z,9.43
2019-02-22T16:55:14.096Z,11.47
2019-02-22T16:57:42.503Z,12.33
2019-02-22T17:00:12.956Z,7.83
2019-02-22T17:02:41.387Z,12.17
2019-02-22T17:05:12.310Z,14.67
2019-02-22T17:07:40.736Z,25.20
2019-02-22T17:10:10.805Z,17.10
2019-02-22T17:12:39.212Z,28.93
2019-02-22T17:15:12.545Z,27.00
2019-02-22T17:17:40.991Z,30.67
2019-02-22T17:20:11.507Z,34.23
2019-02-22T17:22:39.969Z,34.60
2019-02-22T17:25:16.918Z,35.57
2019-02-22T17:27:45.323Z,51.03
2019-02-22T17:30:16.232Z,61.63
2019-02-22T17:32:44.665Z,70.00
2019-02-22T17:35:13.113Z,77.60
2019-02-22T17:37:41.553Z,71.13
2019-02-22T17:40:12.860Z,61.17
2019-02-22T17:42:41.294Z,60.70
2019-02-22T17:45:09.685Z,64.20
2019-02-22T17:47:38.085Z,70.47
2019-02-22T17:50:08.998Z,57.97
2019-02-22T17:52:37.562Z,53.63
2019-02-22T17:55:08.017Z,55.93
2019-02-22T17:57:36.453Z,65.63
2019-02-22T18:00:12.375Z,67.27
2019-02-22T18:02:41.362Z,70.20
2019-02-22T18:05:09.760Z,61.50
2019-02-22T18:07:38.157Z,66.43
2019-02-22T18:10:09.155Z,71.73
2019-02-22T18:12:37.581Z,60.10
2019-02-22T18:15:11.715Z,45.77
2019-02-22T18:17:41.461Z,49.20
2019-02-22T18:20:10.199Z,42.23
2019-02-22T18:22:38.621Z,50.07
2019-02-22T18:25:08.668Z,68.00
2019-02-22T18:27:37.094Z,140.70
2019-02-22T18:30:24.121Z,77.27
2019-02-22T18:32:52.620Z,52.80
2019-02-22T18:35:21.924Z,46.37
2019-02-22T18:37:50.335Z,43.77
2019-02-22T18:40:22.816Z,56.37
2019-02-22T18:42:51.535Z,52.50
2019-02-22T18:45:19.943Z,60.97
2019-02-22T18:47:48.345Z,45.23
2019-02-22T18:50:16.753Z,58.97
2019-02-22T18:52:45.174Z,42.77
2019-02-22T18:55:13.625Z,42.03
2019-02-22T18:57:42.101Z,90.73
2019-02-22T19:00:16.574Z,66.80
2019-02-22T19:02:44.974Z,60.97
2019-02-22T19:05:13.371Z,53.80
2019-02-22T19:07:41.868Z,25.57
2019-02-22T19:10:12.393Z,29.50
2019-02-22T19:12:40.953Z,29.13
2019-02-22T19:15:13.706Z,36.10
2019-02-22T19:17:42.105Z,30.97
2019-02-22T19:20:12.843Z,21.23
2019-02-22T19:22:41.257Z,13.13
2019-02-22T19:25:09.987Z,92.10
2019-02-22T19:27:38.389Z,47.17
2019-02-22T19:30:12.268Z,41.30
2019-02-22T19:32:40.669Z,24.77
2019-02-22T19:35:09.061Z,24.83
2019-02-22T19:37:37.479Z,23.73
2019-02-22T19:40:09.099Z,23.87
2019-02-22T19:42:37.492Z,16.00
2019-02-22T19:45:08.235Z,18.30
2019-02-22T19:47:41.760Z,17.77
2019-02-22T19:50:09.961Z,22.50
2019-02-22T19:52:38.453Z,20.57
2019-02-22T19:55:12.243Z,13.97
2019-02-22T19:57:40.655Z,18.07
2019-02-22T20:00:19.127Z,14.70
2019-02-22T20:02:47.543Z,15.23
2019-02-22T20:05:16.133Z,18.17
2019-02-22T20:07:44.603Z,17.60
2019-02-22T20:10:18.747Z,20.43
2019-02-22T20:12:47.294Z,24.13
2019-02-22T20:15:16.899Z,31.97
2019-02-22T20:17:53.084Z,25.47
2019-02-22T20:20:17.554Z,30.07
2019-02-22T20:22:45.999Z,18.80
2019-02-22T20:25:14.394Z,18.43
2019-02-22T20:27:42.798Z,19.33
2019-02-22T20:30:20.435Z,21.07
2019-02-22T20:32:48.927Z,19.57
2019-02-22T20:35:24.835Z,19.73
2019-02-22T20:37:53.606Z,18.87
2019-02-22T20:40:22.103Z,20.30
2019-02-22T20:42:50.530Z,14.97
2019-02-22T20:45:18.928Z,14.77
2019-02-22T20:47:47.349Z,17.60
2019-02-22T20:50:15.906Z,20.13
2019-02-22T20:52:44.301Z,19.50
2019-02-22T20:55:13.054Z,15.07
2019-02-22T20:57:41.660Z,13.70
2019-02-22T21:00:21.336Z,15.33
2019-02-22T21:02:49.760Z,17.63
2019-02-22T21:05:18.159Z,19.50
2019-02-22T21:07:46.590Z,14.43
2019-02-22T21:10:19.065Z,18.10
2019-02-22T21:12:47.475Z,19.80
2019-02-22T21:15:15.980Z,17.23
2019-02-22T21:17:44.377Z,18.40
2019-02-22T21:20:18.715Z,20.13
2019-02-22T21:22:47.157Z,19.40
2019-02-22T21:25:15.558Z,15.17
2019-02-22T21:27:43.977Z,20.63
2019-02-22T21:30:14.210Z,16.57
2019-02-22T21:32:42.641Z,22.03
2019-02-22T21:35:11.999Z,17.00
2019-02-22T21:37:41.956Z,14.73
2019-02-22T21:40:12.463Z,16.93
2019-02-22T21:42:40.874Z,15.13
2019-02-22T21:45:13.881Z,15.13
2019-02-22T21:47:53.675Z,22.80
2019-02-22T21:50:17.130Z,22.03
2019-02-22T21:52:45.536Z,28.20
2019-02-22T21:55:15.095Z,29.70
2019-02-22T21:57:43.579Z,21.97
2019-02-22T22:00:20.153Z,22.40
2019-02-22T22:02:48.549Z,21.10
2019-02-22T22:05:17.026Z,20.70
2019-02-22T22:07:45.459Z,22.27
2019-02-22T22:10:13.873Z,18.13
2019-02-22T22:12:42.299Z,17.00
2019-02-22T22:15:13.315Z,21.30
2019-02-22T22:17:41.744Z,18.03
2019-02-22T22:20:10.797Z,15.80
2019-02-22T22:22:39.434Z,19.20
2019-02-22T22:25:15.061Z,18.03
2019-02-22T22:27:43.459Z,15.90
2019-02-22T22:30:15.535Z,15.63
2019-02-22T22:32:43.925Z,20.13
2019-02-22T22:35:16.577Z,20.80
2019-02-22T22:37:44.985Z,17.50
2019-02-22T22:40:13.407Z,19.77
2019-02-22T22:42:41.811Z,13.03
2019-02-22T22:45:12.667Z,20.00
2019-02-22T22:47:41.071Z,19.00
2019-02-22T22:50:11.233Z,20.00
2019-02-22T22:52:39.645Z,20.63
2019-02-22T22:55:09.688Z,17.93
2019-02-22T22:57:38.103Z,18.33
2019-02-22T23:00:19.147Z,15.30
2019-02-22T23:02:47.625Z,13.90
2019-02-22T23:05:16.042Z,13.47
2019-02-22T23:07:44.499Z,14.10
2019-02-22T23:10:13.006Z,20.43
2019-02-22T23:12:44.027Z,20.83
2019-02-22T23:15:11.624Z,27.03
2019-02-22T23:17:40.031Z,34.87
2019-02-22T23:20:08.619Z,21.77
2019-02-22T23:22:37.026Z,19.00
2019-02-22T23:25:05.824Z,19.17
2019-02-22T23:27:34.240Z,19.73
2019-02-22T23:30:02.724Z,19.30
2019-02-22T23:32:31.139Z,18.00
2019-02-22T23:34:59.551Z,25.47
2019-02-22T23:37:27.961Z,15.27
2019-02-22T23:39:56.371Z,19.60
2019-02-22T23:42:24.762Z,15.67
2019-02-22T23:44:53.188Z,19.67
2019-02-22T23:47:21.577Z,18.97
2019-02-22T23:49:49.980Z,16.57
2019-02-22T23:52:18.394Z,16.90
2019-02-22T23:54:46.799Z,17.80
2019-02-22T23:57:15.202Z,19.33
2019-02-22T23:59:43.616Z,17.90
